createdAt,value
2022-11-04T00:02:08.969Z,8.85
2022-11-04T00:04:36.587Z,8.83
2022-11-04T00:07:23.272Z,8.81
2022-11-04T00:09:49.918Z,8.80
2022-11-04T00:12:25.677Z,8.76
2022-11-04T00:14:53.039Z,8.82
2022-11-04T00:17:19.985Z,8.78
2022-11-04T00:20:06.597Z,8.79
2022-11-04T00:22:52.141Z,8.77
2022-11-04T00:25:38.114Z,8.78
2022-11-04T00:28:39.102Z,8.81
2022-11-04T00:31:43.625Z,8.79
2022-11-04T00:34:10.344Z,8.77
2022-11-04T00:36:37.179Z,8.75
2022-11-04T00:39:04.068Z,8.77
2022-11-04T00:41:30.777Z,8.78
2022-11-04T00:43:59.950Z,8.75
2022-11-04T00:46:28.093Z,8.81
2022-11-04T00:48:55.102Z,8.75
2022-11-04T00:51:22.389Z,8.77
2022-11-04T00:53:49.664Z,8.73
2022-11-04T00:56:16.934Z,8.78
2022-11-04T00:58:43.896Z,8.77
2022-11-04T01:01:12.592Z,8.79
2022-11-04T01:03:39.626Z,8.78
2022-11-04T01:06:06.933Z,8.72
2022-11-04T01:08:33.604Z,8.76
2022-11-04T01:11:04.866Z,8.79
2022-11-04T01:13:32.068Z,8.79
2022-11-04T01:16:05.877Z,8.73
2022-11-04T01:18:33.562Z,8.71
2022-11-04T01:21:05.794Z,8.70
2022-11-04T01:23:34.095Z,8.74
2022-11-04T01:26:00.859Z,8.66
2022-11-04T01:28:27.596Z,8.65
2022-11-04T01:30:54.233Z,8.61
2022-11-04T01:33:20.885Z,8.66
2022-11-04T01:35:47.581Z,8.62
2022-11-04T01:38:14.348Z,8.58
2022-11-04T01:40:41.525Z,8.62
2022-11-04T01:43:46.144Z,8.63
2022-11-04T01:46:22.918Z,8.54
2022-11-04T01:48:50.532Z,8.57
2022-11-04T01:51:17.656Z,8.50
2022-11-04T01:53:45.364Z,8.58
2022-11-04T01:56:14.440Z,8.63
2022-11-04T01:58:48.297Z,8.59
2022-11-04T02:01:15.120Z,8.62
2022-11-04T02:03:50.800Z,8.65
2022-11-04T02:06:19.805Z,8.64
2022-11-04T02:08:48.057Z,8.55
2022-11-04T02:11:35.335Z,8.58
2022-11-04T02:14:02.502Z,8.57
2022-11-04T02:16:40.218Z,8.60
2022-11-04T02:19:31.989Z,8.58
2022-11-04T02:22:17.357Z,8.57
2022-11-04T02:25:11.627Z,8.55
2022-11-04T02:27:50.257Z,8.54
2022-11-04T02:30:18.766Z,8.47
2022-11-04T02:33:15.997Z,8.44
2022-11-04T02:35:55.782Z,8.32
2022-11-04T02:38:22.413Z,8.29
2022-11-04T02:41:17.617Z,8.25
2022-11-04T02:43:47.387Z,8.25
2022-11-04T02:46:44.361Z,8.23
2022-11-04T02:49:15.638Z,8.29
2022-11-04T02:51:52.244Z,8.26
2022-11-04T02:54:31.174Z,8.28
2022-11-04T02:57:01.810Z,8.28
2022-11-04T02:59:37.059Z,8.28
2022-11-04T03:02:08.392Z,8.25
2022-11-04T03:04:41.201Z,8.21
2022-11-04T03:09:50.375Z,8.19
2022-11-04T03:12:20.965Z,8.19
2022-11-04T03:14:55.698Z,8.11
2022-11-04T03:17:31.662Z,8.04
2022-11-04T03:20:03.500Z,7.98
2022-11-04T03:22:33.433Z,7.96
2022-11-04T03:25:02.301Z,7.86
2022-11-04T03:27:41.153Z,7.81
2022-11-04T03:33:16.092Z,7.82
2022-11-04T03:35:42.868Z,7.75
2022-11-04T03:38:09.513Z,7.74
2022-11-04T03:40:36.353Z,7.66
2022-11-04T03:43:11.161Z,7.72
2022-11-04T03:45:39.392Z,7.73
2022-11-04T03:48:06.428Z,7.74
2022-11-04T03:50:44.510Z,7.63
2022-11-04T03:53:13.678Z,7.58
2022-11-04T03:55:48.623Z,7.53
2022-11-04T03:58:36.511Z,7.53
2022-11-04T04:01:40.782Z,7.60
2022-11-04T04:04:31.752Z,7.58
2022-11-04T04:07:05.127Z,7.57
2022-11-04T04:09:45.874Z,7.52
2022-11-04T04:12:36.226Z,7.55
2022-11-04T04:15:12.208Z,7.57
2022-11-04T04:17:50.462Z,7.52
2022-11-04T04:20:23.420Z,7.44
2022-11-04T04:22:55.045Z,7.37
2022-11-04T04:25:44.794Z,7.38
2022-11-04T04:28:14.995Z,7.34
2022-11-04T04:30:43.741Z,7.35
2022-11-04T04:33:15.707Z,7.39
2022-11-04T04:35:46.993Z,7.35
2022-11-04T04:38:46.426Z,7.32
2022-11-04T04:41:36.712Z,7.28
2022-11-04T04:44:23.011Z,7.23
2022-11-04T04:46:52.230Z,7.18
2022-11-04T04:49:18.843Z,7.18
2022-11-04T04:51:47.792Z,7.19
2022-11-04T04:54:14.948Z,7.19
2022-11-04T04:56:41.607Z,7.20
2022-11-04T04:59:08.481Z,7.19
2022-11-04T05:01:35.293Z,7.18
2022-11-04T05:04:02.018Z,7.16
2022-11-04T05:06:28.652Z,7.16
2022-11-04T05:08:55.273Z,7.13
2022-11-04T05:11:26.200Z,7.11
2022-11-04T05:13:53.905Z,7.13
2022-11-04T05:16:20.700Z,7.12
2022-11-04T05:18:47.393Z,7.11
2022-11-04T05:21:16.229Z,7.09
2022-11-04T05:23:42.939Z,7.08
2022-11-04T05:26:09.783Z,7.05
2022-11-04T05:28:36.452Z,7.07
2022-11-04T05:31:05.499Z,7.03
2022-11-04T05:33:32.800Z,7.06
2022-11-04T05:36:07.260Z,7.09
2022-11-04T05:38:34.144Z,7.08
2022-11-04T05:41:00.801Z,7.03
2022-11-04T05:43:27.780Z,7.05
2022-11-04T05:45:54.608Z,7.05
2022-11-04T05:48:21.414Z,7.05
2022-11-04T05:50:48.035Z,7.09
2022-11-04T05:53:14.727Z,7.12
2022-11-04T05:55:41.384Z,7.13
2022-11-04T05:58:08.204Z,7.15
2022-11-04T06:00:35.233Z,7.11
2022-11-04T06:03:02.054Z,7.03
2022-11-04T06:05:28.964Z,7.05
2022-11-04T06:07:56.559Z,6.98
2022-11-04T06:10:24.125Z,7.00
2022-11-04T06:12:51.242Z,7.01
2022-11-04T06:15:17.965Z,7.00
2022-11-04T06:17:44.634Z,7.01
2022-11-04T06:20:11.399Z,6.96
2022-11-04T06:22:38.049Z,6.97
2022-11-04T06:25:05.036Z,6.98
2022-11-04T06:27:31.771Z,6.99
2022-11-04T06:29:58.452Z,6.96
2022-11-04T06:32:25.266Z,6.96
2022-11-04T06:34:51.921Z,6.93
2022-11-04T06:37:18.929Z,6.94
2022-11-04T06:39:45.646Z,6.92
2022-11-04T06:42:12.293Z,6.85
2022-11-04T06:44:38.989Z,6.85
2022-11-04T06:47:05.672Z,6.86
2022-11-04T06:49:32.340Z,6.91
2022-11-04T06:51:59.058Z,6.92
2022-11-04T06:54:25.668Z,6.91
2022-11-04T06:56:52.303Z,6.88
2022-11-04T06:59:20.433Z,6.92
2022-11-04T07:01:49.145Z,6.89
2022-11-04T07:04:15.859Z,6.83
2022-11-04T07:06:44.428Z,6.81
2022-11-04T07:09:15.932Z,6.86
2022-11-04T07:11:43.843Z,6.84
2022-11-04T07:14:11.276Z,6.88
2022-11-04T07:16:38.418Z,6.92
2022-11-04T07:19:05.830Z,6.93
2022-11-04T07:21:32.961Z,6.93
2022-11-04T07:24:01.019Z,6.94
2022-11-04T07:26:27.683Z,6.97
2022-11-04T07:28:54.365Z,6.95
2022-11-04T07:31:22.200Z,6.88
2022-11-04T07:33:51.223Z,6.91
2022-11-04T07:36:19.125Z,6.91
2022-11-04T07:38:46.302Z,6.88
2022-11-04T07:41:14.035Z,6.83
2022-11-04T07:43:40.763Z,6.85
2022-11-04T07:46:12.806Z,6.89
2022-11-04T07:48:39.758Z,6.91
2022-11-04T07:51:08.624Z,6.87
2022-11-04T07:53:35.527Z,6.94
2022-11-04T07:56:07.421Z,7.01
2022-11-04T07:58:34.863Z,6.98
2022-11-04T08:01:07.215Z,7.01
2022-11-04T08:03:34.450Z,6.94
2022-11-04T08:06:02.754Z,6.94
2022-11-04T08:08:29.856Z,6.90
2022-11-04T08:11:00.435Z,6.92
2022-11-04T08:13:29.203Z,6.92
2022-11-04T08:15:57.141Z,6.96
2022-11-04T08:18:23.875Z,6.93
2022-11-04T08:20:52.163Z,6.92
2022-11-04T08:23:19.017Z,7.01
2022-11-04T08:25:45.978Z,7.06
2022-11-04T08:28:17.477Z,7.10
2022-11-04T08:30:55.202Z,7.11
2022-11-04T08:33:23.508Z,7.08
2022-11-04T08:35:50.547Z,7.10
2022-11-04T08:38:17.657Z,7.09
2022-11-04T08:40:44.520Z,7.14
2022-11-04T08:43:11.799Z,7.16
2022-11-04T08:45:44.022Z,7.27
2022-11-04T08:48:12.215Z,7.31
2022-11-04T08:50:39.672Z,7.32
2022-11-04T08:53:06.610Z,7.34
2022-11-04T08:55:33.508Z,7.35
2022-11-04T08:58:01.028Z,7.38
2022-11-04T09:00:28.160Z,7.38
2022-11-04T09:02:55.744Z,7.35
2022-11-04T09:05:22.718Z,7.31
2022-11-04T09:07:49.595Z,7.39
2022-11-04T09:10:17.321Z,7.39
2022-11-04T09:12:45.190Z,7.40
2022-11-04T09:15:12.206Z,7.46
2022-11-04T09:17:38.985Z,7.38
2022-11-04T09:20:06.473Z,7.42
2022-11-04T09:22:33.164Z,7.35
2022-11-04T09:24:59.796Z,7.42
2022-11-04T09:27:26.493Z,7.50
2022-11-04T09:29:53.155Z,7.44
2022-11-04T09:32:19.842Z,7.54
2022-11-04T09:34:46.456Z,7.52
2022-11-04T09:37:13.286Z,7.56
2022-11-04T09:39:39.960Z,7.56
2022-11-04T09:42:15.808Z,7.66
2022-11-04T09:45:21.036Z,7.80
2022-11-04T09:47:51.007Z,7.88
2022-11-04T09:50:27.032Z,7.83
2022-11-04T09:53:27.165Z,7.93
2022-11-04T09:56:04.849Z,7.99
2022-11-04T09:58:37.112Z,8.04
2022-11-04T10:01:15.034Z,8.03
2022-11-04T10:03:41.700Z,8.05
2022-11-04T10:06:46.773Z,8.25
2022-11-04T10:09:21.331Z,8.32
2022-11-04T10:12:04.281Z,8.37
2022-11-04T10:14:48.113Z,8.48
2022-11-04T10:17:32.804Z,8.53
2022-11-04T10:20:02.451Z,8.52
2022-11-04T10:22:33.826Z,8.49
2022-11-04T10:25:21.644Z,8.39
2022-11-04T10:27:49.179Z,8.40
2022-11-04T10:30:20.974Z,8.44
2022-11-04T10:33:03.188Z,8.43
2022-11-04T10:35:36.790Z,8.39
2022-11-04T10:38:17.646Z,8.46
2022-11-04T10:40:48.452Z,8.51
2022-11-04T10:43:20.864Z,8.55
2022-11-04T10:46:19.585Z,8.62
2022-11-04T10:48:58.406Z,8.74
2022-11-04T10:51:25.438Z,8.77
2022-11-04T10:53:57.920Z,8.81
2022-11-04T10:56:43.126Z,8.86
2022-11-04T10:59:24.673Z,8.91
2022-11-04T11:01:57.396Z,8.98
2022-11-04T11:04:30.045Z,9.12
2022-11-04T11:06:59.383Z,9.19
2022-11-04T11:09:29.842Z,9.30
2022-11-04T11:12:49.496Z,9.45
2022-11-04T11:15:22.272Z,9.68
2022-11-04T11:17:48.953Z,9.69
2022-11-04T11:20:22.146Z,9.66
2022-11-04T11:22:52.037Z,9.53
2022-11-04T11:25:32.002Z,9.63
2022-11-04T11:28:20.693Z,9.68
2022-11-04T11:30:47.697Z,9.70
2022-11-04T11:33:18.771Z,9.65
2022-11-04T11:35:51.914Z,9.58
2022-11-04T11:38:21.514Z,9.69
2022-11-04T11:41:22.784Z,9.75
2022-11-04T11:44:05.248Z,9.87
2022-11-04T11:46:34.894Z,9.87
2022-11-04T11:49:03.460Z,9.84
2022-11-04T11:51:36.281Z,9.92
2022-11-04T11:54:35.162Z,9.86
2022-11-04T11:57:14.752Z,9.73
2022-11-04T12:02:52.161Z,9.93
2022-11-04T12:11:45.784Z,9.94
2022-11-04T12:14:36.476Z,10.03
2022-11-04T12:17:12.332Z,9.94
2022-11-04T12:19:48.021Z,9.81
2022-11-04T12:22:27.072Z,9.79
2022-11-04T12:24:56.872Z,9.92
2022-11-04T12:27:23.499Z,9.92
2022-11-04T12:30:02.391Z,9.86
2022-11-04T12:32:35.117Z,9.82
2022-11-04T12:35:11.662Z,9.75
2022-11-04T12:38:19.806Z,9.77
2022-11-04T12:41:34.303Z,9.72
2022-11-04T12:44:13.153Z,9.74
2022-11-04T12:47:07.427Z,9.76
2022-11-04T12:50:09.660Z,9.90
2022-11-04T12:53:08.919Z,9.96
2022-11-04T12:56:18.127Z,10.07
2022-11-04T12:58:53.712Z,10.05
2022-11-04T13:01:46.941Z,10.11
2022-11-04T13:04:18.516Z,10.19
2022-11-04T13:06:54.024Z,10.15
2022-11-04T13:09:25.685Z,10.14
2022-11-04T13:12:09.122Z,10.16
2022-11-04T13:14:42.197Z,10.12
2022-11-04T13:17:14.017Z,10.01
2022-11-04T13:19:46.843Z,10.01
2022-11-04T13:22:19.473Z,9.94
2022-11-04T13:25:00.314Z,9.88
2022-11-04T13:27:45.739Z,9.98
2022-11-04T13:30:44.939Z,10.02
2022-11-04T13:33:21.699Z,10.02
2022-11-04T13:36:16.404Z,10.03
2022-11-04T13:38:50.489Z,9.90
2022-11-04T13:41:35.690Z,9.93
2022-11-04T13:44:13.252Z,9.92
2022-11-04T13:46:40.310Z,9.87
2022-11-04T13:49:20.396Z,9.80
2022-11-04T13:52:00.467Z,9.83
2022-11-04T13:54:33.835Z,9.87
2022-11-04T13:57:12.940Z,9.85
2022-11-04T13:59:40.949Z,9.84
2022-11-04T14:02:19.666Z,9.88
2022-11-04T14:04:47.405Z,9.82
2022-11-04T14:07:17.900Z,9.78
2022-11-04T14:09:44.581Z,9.81
2022-11-04T14:12:11.387Z,9.85
2022-11-04T14:14:39.963Z,9.82
2022-11-04T14:17:34.736Z,9.76
2022-11-04T14:20:11.769Z,9.73
2022-11-04T14:22:44.553Z,9.73
2022-11-04T14:25:29.892Z,9.73
2022-11-04T14:28:20.260Z,9.59
2022-11-04T14:30:56.180Z,9.55
2022-11-04T14:33:32.029Z,9.51
2022-11-04T14:36:16.192Z,9.50
2022-11-04T14:38:44.719Z,9.42
2022-11-04T14:41:28.956Z,9.33
2022-11-04T14:44:01.100Z,9.37
2022-11-04T14:46:34.480Z,9.26
2022-11-04T14:49:02.309Z,9.16
2022-11-04T14:51:31.776Z,9.10
2022-11-04T14:54:10.456Z,9.05
2022-11-04T14:56:37.175Z,8.92
2022-11-04T14:59:06.405Z,9.01
2022-11-04T15:01:37.901Z,8.99
2022-11-04T15:04:34.414Z,9.01
2022-11-04T15:07:03.514Z,9.02
2022-11-04T15:09:39.888Z,9.04
2022-11-04T15:12:29.694Z,9.03
2022-11-04T15:14:57.582Z,9.03
2022-11-04T15:17:28.606Z,8.88
2022-11-04T15:19:57.775Z,8.76
2022-11-04T15:22:27.137Z,8.63
2022-11-04T15:24:54.299Z,8.56
2022-11-04T15:27:28.107Z,8.62
2022-11-04T15:30:01.137Z,8.55
2022-11-04T15:32:27.842Z,8.50
2022-11-04T15:34:55.857Z,8.53
2022-11-04T15:37:24.121Z,8.48
2022-11-04T15:39:55.296Z,8.42
2022-11-04T15:42:39.731Z,8.35
2022-11-04T15:45:37.974Z,8.31
2022-11-04T15:48:29.668Z,8.22
2022-11-04T15:51:02.641Z,8.14
2022-11-04T15:53:29.420Z,8.02
2022-11-04T15:55:56.320Z,8.00
2022-11-04T15:58:23.328Z,7.91
2022-11-04T16:00:55.062Z,8.02
2022-11-04T16:03:24.226Z,8.04
2022-11-04T16:06:02.530Z,8.03
2022-11-04T16:08:30.339Z,7.97
2022-11-04T16:11:13.044Z,7.94
2022-11-04T16:13:40.179Z,7.93
2022-11-04T16:16:23.263Z,7.88
2022-11-04T16:18:57.264Z,7.91
2022-11-04T16:21:30.683Z,7.90
2022-11-04T16:24:02.260Z,7.87
2022-11-04T16:26:37.578Z,7.86
2022-11-04T16:29:09.420Z,7.83
2022-11-04T16:31:37.453Z,7.80
2022-11-04T16:34:08.319Z,7.78
2022-11-04T16:36:36.014Z,7.72
2022-11-04T16:39:04.828Z,7.70
2022-11-04T16:41:35.610Z,7.67
2022-11-04T16:44:03.840Z,7.59
2022-11-04T16:46:32.903Z,7.56
2022-11-04T16:48:59.785Z,7.50
2022-11-04T16:51:26.573Z,7.44
2022-11-04T16:53:54.308Z,7.41
2022-11-04T16:56:24.610Z,7.37
2022-11-04T16:58:52.403Z,7.31
2022-11-04T17:01:19.399Z,7.27
2022-11-04T17:03:46.187Z,7.26
2022-11-04T17:06:15.288Z,7.22
2022-11-04T17:08:42.313Z,7.08
2022-11-04T17:11:10.690Z,7.10
2022-11-04T17:13:37.683Z,7.11
2022-11-04T17:16:11.225Z,7.11
2022-11-04T17:18:37.869Z,7.09
2022-11-04T17:21:07.889Z,7.07
2022-11-04T17:23:34.581Z,7.06
2022-11-04T17:26:01.350Z,7.00
2022-11-04T17:28:28.029Z,6.79
2022-11-04T17:30:54.694Z,6.80
2022-11-04T17:33:21.463Z,6.83
2022-11-04T17:35:50.159Z,6.79
2022-11-04T17:38:18.405Z,6.75
2022-11-04T17:41:04.320Z,6.79
2022-11-04T17:43:51.366Z,6.76
2022-11-04T17:46:41.464Z,6.74
2022-11-04T17:49:11.231Z,6.69
2022-11-04T17:51:39.578Z,6.66
2022-11-04T17:54:06.689Z,6.61
2022-11-04T17:56:33.398Z,6.62
2022-11-04T17:59:01.667Z,6.56
2022-11-04T18:01:28.562Z,6.48
2022-11-04T18:03:55.786Z,6.54
2022-11-04T18:06:23.294Z,6.54
2022-11-04T18:08:52.547Z,6.53
2022-11-04T18:11:37.990Z,6.52
2022-11-04T18:14:05.090Z,6.46
2022-11-04T18:16:31.729Z,6.48
2022-11-04T18:18:59.521Z,6.52
2022-11-04T18:21:27.206Z,6.51
2022-11-04T18:23:57.042Z,6.51
2022-11-04T18:26:24.565Z,6.53
2022-11-04T18:28:51.714Z,6.53
2022-11-04T18:31:28.048Z,6.55
2022-11-04T18:33:55.240Z,6.54
2022-11-04T18:36:21.880Z,6.48
2022-11-04T18:38:48.524Z,6.42
2022-11-04T18:41:15.998Z,6.36
2022-11-04T18:43:42.682Z,6.25
2022-11-04T18:46:12.112Z,6.25
2022-11-04T18:48:39.503Z,6.21
2022-11-04T18:51:09.617Z,6.15
2022-11-04T18:53:36.684Z,6.06
2022-11-04T18:56:29.853Z,6.06
2022-11-04T18:58:56.494Z,6.09
2022-11-04T19:01:29.323Z,6.08
2022-11-04T19:03:56.517Z,6.12
2022-11-04T19:06:26.904Z,6.20
2022-11-04T19:09:13.417Z,6.29
2022-11-04T19:12:09.439Z,6.31
2022-11-04T19:14:36.078Z,6.40
2022-11-04T19:17:02.691Z,6.45
2022-11-04T19:19:29.339Z,6.47
2022-11-04T19:21:55.954Z,6.53
2022-11-04T19:24:23.261Z,6.59
2022-11-04T19:26:49.888Z,6.58
2022-11-04T19:29:16.517Z,6.56
2022-11-04T19:31:43.144Z,6.62
2022-11-04T19:34:10.185Z,6.65
2022-11-04T19:36:37.502Z,6.69
2022-11-04T19:39:05.184Z,6.71
2022-11-04T19:41:50.432Z,6.76
2022-11-04T19:44:19.379Z,6.76
2022-11-04T19:46:46.840Z,6.80
2022-11-04T19:49:14.044Z,6.76
2022-11-04T19:51:41.392Z,6.80
2022-11-04T19:54:09.592Z,6.80
2022-11-04T19:56:37.152Z,6.71
2022-11-04T19:59:06.643Z,6.70
2022-11-04T20:01:35.287Z,6.69
2022-11-04T20:04:04.121Z,6.67
2022-11-04T20:06:32.362Z,6.64
2022-11-04T20:09:02.048Z,6.51
2022-11-04T20:11:28.707Z,6.44
2022-11-04T20:13:55.464Z,6.46
2022-11-04T20:16:30.380Z,6.54
2022-11-04T20:19:00.837Z,6.54
2022-11-04T20:21:30.743Z,6.61
2022-11-04T20:23:59.471Z,6.63
2022-11-04T20:26:27.108Z,6.66
2022-11-04T20:28:55.326Z,6.71
2022-11-04T20:31:23.893Z,6.75
2022-11-04T20:33:52.378Z,6.71
2022-11-04T20:36:21.239Z,6.72
2022-11-04T20:38:48.139Z,6.66
2022-11-04T20:41:19.858Z,6.61
2022-11-04T20:43:48.053Z,6.65
2022-11-04T20:46:19.202Z,6.69
2022-11-04T20:48:47.523Z,6.68
2022-11-04T20:51:19.849Z,6.71
2022-11-04T20:53:46.385Z,6.75
2022-11-04T20:56:18.317Z,6.76
2022-11-04T20:58:47.031Z,6.80
2022-11-04T21:01:22.258Z,6.89
2022-11-04T21:03:48.998Z,6.90
2022-11-04T21:06:15.662Z,6.95
2022-11-04T21:08:42.274Z,6.93
2022-11-04T21:11:08.925Z,6.91
2022-11-04T21:13:36.005Z,6.87
2022-11-04T21:16:03.026Z,6.83
2022-11-04T21:18:29.947Z,6.77
2022-11-04T21:20:57.480Z,6.70
2022-11-04T21:23:24.950Z,6.63
2022-11-04T21:25:55.729Z,6.59
2022-11-04T21:28:22.896Z,6.52
2022-11-04T21:30:51.390Z,6.49
2022-11-04T21:33:18.045Z,6.45
2022-11-04T21:35:45.578Z,6.40
2022-11-04T21:38:15.616Z,6.36
2022-11-04T21:40:43.098Z,6.32
2022-11-04T21:43:10.821Z,6.31
2022-11-04T21:45:37.903Z,6.29
2022-11-04T21:48:04.766Z,6.25
2022-11-04T21:50:31.766Z,6.20
2022-11-04T21:52:58.600Z,6.14
2022-11-04T21:55:25.529Z,6.12
2022-11-04T21:57:52.185Z,6.10
2022-11-04T22:00:18.898Z,6.04
2022-11-04T22:02:51.721Z,5.96
2022-11-04T22:05:18.817Z,5.88
2022-11-04T22:08:20.756Z,5.84
2022-11-04T22:10:47.500Z,5.80
2022-11-04T22:13:14.130Z,5.78
2022-11-04T22:15:58.626Z,5.73
2022-11-04T22:18:26.332Z,5.68
2022-11-04T22:20:53.357Z,5.68
2022-11-04T22:23:20.900Z,5.66
2022-11-04T22:25:50.337Z,5.68
2022-11-04T22:28:17.808Z,5.68
2022-11-04T22:30:45.040Z,5.67
2022-11-04T22:33:32.264Z,5.68
2022-11-04T22:35:59.094Z,5.67
2022-11-04T22:38:25.764Z,5.66
2022-11-04T22:40:57.288Z,5.65
2022-11-04T22:43:25.493Z,5.66
2022-11-04T22:45:53.307Z,5.62
2022-11-04T22:48:21.028Z,5.64
2022-11-04T22:50:55.289Z,5.64
2022-11-04T22:53:24.603Z,5.63
2022-11-04T22:55:52.247Z,5.64
2022-11-04T22:58:19.292Z,5.74
2022-11-04T23:00:46.652Z,5.83
2022-11-04T23:03:13.658Z,5.84
2022-11-04T23:05:40.670Z,5.90
2022-11-04T23:08:07.349Z,5.96
2022-11-04T23:10:52.967Z,5.98
2022-11-04T23:13:38.296Z,5.98
2022-11-04T23:16:24.060Z,6.00
2022-11-04T23:18:52.140Z,6.00
2022-11-04T23:21:40.156Z,6.00
2022-11-04T23:24:26.352Z,5.95
2022-11-04T23:26:55.605Z,5.95
2022-11-04T23:29:40.762Z,5.95
2022-11-04T23:32:07.574Z,5.96
2022-11-04T23:34:53.095Z,6.00
2022-11-04T23:37:20.177Z,6.01
2022-11-04T23:39:50.372Z,6.00
2022-11-04T23:42:22.821Z,5.94
2022-11-04T23:45:15.382Z,5.91
2022-11-04T23:48:03.686Z,5.90
2022-11-04T23:50:53.892Z,5.86
2022-11-04T23:53:40.265Z,5.90
2022-11-04T23:56:29.342Z,5.89
2022-11-04T23:59:14.782Z,5.89
